Time;durP1;ratioP1;P1;durP2;ratioP2;P2;SDS_P1;SDS_P2;PMS_P1;PMS_P2;Temp;Humidity;BMP_temperature;BMP_pressure;BME280_temperature;BME280_humidity;BME280_pressure;Samples;Min_cycle;Max_cycle;Signal;HPM_P1;HPM_P2
2021/12/06 00:01:30;;;;;;;90.28;42.97;;;;;;;-0.38;100.00;101258.59;4878972;29;20474;-75
2021/12/06 00:04:22;;;;;;;86.80;40.70;;;;;;;-0.36;100.00;101267.09;4875224;29;20077;-76
2021/12/06 00:06:53;;;;;;;87.60;41.90;;;;;;;-0.37;100.00;101252.56;4891562;29;20048;-77
2021/12/06 00:09:21;;;;;;;87.55;41.72;;;;;;;-0.31;100.00;101252.28;4895218;29;20044;-76
2021/12/06 00:11:51;;;;;;;83.80;41.50;;;;;;;-0.24;100.00;101264.84;4877770;29;20100;-76
2021/12/06 00:14:17;;;;;;;83.53;39.95;;;;;;;-0.22;100.00;101252.72;4864124;29;20116;-77
2021/12/06 00:16:43;;;;;;;85.38;41.80;;;;;;;-0.34;100.00;101242.09;4896079;29;20079;-77
2021/12/06 00:19:09;;;;;;;81.13;40.10;;;;;;;-0.37;100.00;101255.13;4880271;29;20535;-79
2021/12/06 00:21:35;;;;;;;73.50;38.30;;;;;;;-0.38;100.00;101258.59;4899127;29;20053;-76
2021/12/06 00:24:01;;;;;;;81.07;40.53;;;;;;;-0.40;100.00;101263.81;4866447;29;20028;-77
2021/12/06 00:26:26;;;;;;;79.18;38.83;;;;;;;-0.40;100.00;101254.34;4890307;29;20072;-76
2021/12/06 00:28:57;;;;;;;70.45;37.35;;;;;;;-0.37;100.00;101258.53;4891376;29;20031;-76
2021/12/06 00:31:25;;;;;;;81.07;38.70;;;;;;;-0.38;100.00;101264.56;4880770;29;20036;-76
2021/12/06 00:33:59;;;;;;;79.55;40.03;;;;;;;-0.41;100.00;101267.31;4873695;29;20043;-77
2021/12/06 00:36:30;;;;;;;83.72;39.53;;;;;;;-0.50;100.00;101265.09;4866406;29;20044;-78
2021/12/06 00:38:57;;;;;;;82.72;39.95;;;;;;;-0.50;100.00;101268.50;4881737;29;20148;-77
2021/12/06 00:41:23;;;;;;;82.70;40.50;;;;;;;-0.57;100.00;101261.09;4895339;29;20029;-77
2021/12/06 00:43:49;;;;;;;81.32;39.33;;;;;;;-0.63;100.00;101262.16;4881125;29;20147;-77
2021/12/06 00:46:15;;;;;;;104.05;41.40;;;;;;;-0.66;100.00;101270.88;4865030;29;20073;-76
2021/12/06 00:48:41;;;;;;;86.30;39.88;;;;;;;-0.62;100.00;101267.28;4896915;29;20044;-77
2021/12/06 00:51:07;;;;;;;84.50;37.97;;;;;;;-0.62;100.00;101262.13;4877452;29;20044;-76
2021/12/06 00:53:32;;;;;;;76.03;38.20;;;;;;;-0.57;100.00;101273.97;4887737;29;20045;-76
2021/12/06 00:55:58;;;;;;;76.00;38.05;;;;;;;-0.59;100.00;101256.00;4874010;29;20062;-76
2021/12/06 00:58:24;;;;;;;76.72;38.08;;;;;;;-0.57;100.00;101264.50;4891142;29;20036;-77
2021/12/06 01:00:54;;;;;;;80.85;38.58;;;;;;;-0.51;100.00;101282.31;4893614;29;20036;-76
2021/12/06 01:03:31;;;;;;;85.88;41.17;;;;;;;-0.53;100.00;101288.41;4863123;29;20049;-77
2021/12/06 01:05:58;;;;;;;82.28;40.65;;;;;;;-0.55;100.00;101293.63;4890576;29;20364;-77
2021/12/06 01:08:24;;;;;;;88.60;41.40;;;;;;;-0.56;100.00;101296.28;4898161;29;20126;-77
2021/12/06 01:10:52;;;;;;;87.03;40.72;;;;;;;-0.57;100.00;101295.41;4892823;29;20120;-75
2021/12/06 01:13:19;;;;;;;83.53;40.42;;;;;;;-0.51;100.00;101294.34;4875842;29;20053;-77
2021/12/06 01:15:44;;;;;;;74.63;37.88;;;;;;;-0.52;100.00;101292.69;4906226;29;20044;-76
2021/12/06 01:18:12;;;;;;;79.78;40.25;;;;;;;-0.55;100.00;101296.19;4886141;29;20051;-76
2021/12/06 01:20:48;;;;;;;82.93;37.22;;;;;;;-0.56;100.00;101298.84;4856838;29;20044;-76
2021/12/06 01:23:16;;;;;;;65.63;34.13;;;;;;;-0.55;100.00;101311.66;4873842;29;20587;-76
2021/12/06 01:41:46;;;;;;;67.82;33.67;;;;;;;-0.95;100.00;101336.38;4877322;29;20085;-76
2021/12/06 01:44:15;;;;;;;68.72;33.97;;;;;;;-0.99;100.00;101345.13;4880668;29;20048;-77
2021/12/06 01:46:54;;;;;;;80.00;37.55;;;;;;;-1.02;100.00;101340.09;4875125;29;20100;-77
2021/12/06 01:49:26;;;;;;;69.35;35.05;;;;;;;-1.06;100.00;101338.53;4891152;29;20178;-77
2021/12/06 01:51:56;;;;;;;68.28;35.55;;;;;;;-1.12;100.00;101333.63;4895208;29;20043;-77
2021/12/06 01:54:22;;;;;;;76.95;36.53;;;;;;;-1.15;100.00;101339.69;4868254;29;20082;-76
2021/12/06 01:56:50;;;;;;;78.50;37.30;;;;;;;-1.25;100.00;101322.94;4894640;29;20491;-76
2021/12/06 01:59:16;;;;;;;82.13;40.22;;;;;;;-1.24;100.00;101338.31;4878740;29;20040;-76
2021/12/06 02:01:43;;;;;;;74.60;34.35;;;;;;;-1.34;100.00;101336.13;4880243;29;20044;-77
2021/12/06 02:04:09;;;;;;;76.47;37.75;;;;;;;-1.37;100.00;101332.78;4880124;29;20036;-76
2021/12/06 02:06:38;;;;;;;68.93;35.03;;;;;;;-1.39;100.00;101347.44;4879670;29;20123;-77
2021/12/06 02:09:06;;;;;;;84.13;39.78;;;;;;;-1.42;100.00;101341.56;4868354;29;20083;-76
2021/12/06 02:11:35;;;;;;;84.60;38.75;;;;;;;-1.49;100.00;101334.94;4865390;29;20036;-76
2021/12/06 02:16:58;;;;;;;85.25;40.95;;;;;;;-1.59;100.00;101332.69;4875949;29;20041;-77
2021/12/06 02:19:30;;;;;;;87.72;39.78;;;;;;;-1.59;100.00;101342.16;4896696;29;20041;-77
2021/12/06 02:21:59;;;;;;;90.15;42.33;;;;;;;-1.61;100.00;101341.38;4896541;29;20549;-77
2021/12/06 02:24:26;;;;;;;89.55;41.63;;;;;;;-1.62;100.00;101342.25;4878212;29;20043;-77
2021/12/06 02:26:53;;;;;;;77.00;38.03;;;;;;;-1.68;100.00;101342.47;4883395;29;20044;-76
2021/12/06 02:29:20;;;;;;;73.70;37.63;;;;;;;-1.64;100.00;101346.59;4866412;29;20043;-76
2021/12/06 02:31:47;;;;;;;71.53;36.80;;;;;;;-1.63;100.00;101348.31;4883479;29;20198;-77
2021/12/06 02:34:14;;;;;;;76.20;37.72;;;;;;;-1.64;100.00;101332.03;4899967;29;20104;-77
2021/12/06 02:36:40;;;;;;;73.30;37.25;;;;;;;-1.65;100.00;101329.50;4878447;29;20051;-76
2021/12/06 02:39:09;;;;;;;70.65;36.13;;;;;;;-1.68;100.00;101330.44;4885780;29;20567;-76
2021/12/06 02:41:35;;;;;;;70.15;36.03;;;;;;;-1.68;100.00;101327.03;4887345;29;20041;-77
2021/12/06 02:44:05;;;;;;;73.25;36.53;;;;;;;-1.62;100.00;101339.66;4891211;29;20053;-76
2021/12/06 02:46:31;;;;;;;72.97;36.70;;;;;;;-1.64;100.00;101338.88;4887529;29;20263;-76
2021/12/06 02:48:57;;;;;;;77.32;38.15;;;;;;;-1.67;100.00;101344.16;4871013;29;20032;-78
2021/12/06 02:51:25;;;;;;;68.22;35.38;;;;;;;-1.71;100.00;101345.13;4899334;29;20037;-77
2021/12/06 02:53:51;;;;;;;80.82;39.92;;;;;;;-1.71;100.00;101358.84;4883618;29;20045;-76
2021/12/06 02:59:10;;;;;;;94.57;40.40;;;;;;;-1.81;100.00;101348.06;4880582;29;20451;-76
2021/12/06 03:01:40;;;;;;;86.35;40.28;;;;;;;-1.82;100.00;101348.09;4867854;29;20184;-76
2021/12/06 03:04:07;;;;;;;92.53;41.00;;;;;;;-1.84;100.00;101345.56;4896774;29;20459;-77
2021/12/06 03:06:34;;;;;;;89.25;39.97;;;;;;;-1.96;100.00;101331.41;4880061;29;20898;-76
2021/12/06 03:09:09;;;;;;;92.80;41.22;;;;;;;-1.96;100.00;101338.25;4888554;29;20045;-76
2021/12/06 03:11:48;;;;;;;87.07;38.00;;;;;;;-1.99;100.00;101349.50;4869264;29;20043;-77
2021/12/06 03:14:17;;;;;;;96.13;39.45;;;;;;;-2.02;100.00;101353.91;4894253;29;20213;-77
2021/12/06 03:16:45;;;;;;;87.70;36.75;;;;;;;-2.05;100.00;101362.56;4880008;29;20048;-76
2021/12/06 03:19:12;;;;;;;95.65;39.92;;;;;;;-2.04;100.00;101358.25;4881769;29;20036;-76
2021/12/06 03:21:38;;;;;;;95.07;42.53;;;;;;;-2.03;100.00;101359.94;4878518;29;20256;-77
2021/12/06 03:24:05;;;;;;;95.18;45.03;;;;;;;-2.00;100.00;101358.13;4881688;29;20139;-78
2021/12/06 03:26:33;;;;;;;91.65;42.55;;;;;;;-1.98;100.00;101364.03;4880291;29;20044;-77
2021/12/06 03:28:59;;;;;;;88.47;40.15;;;;;;;-1.97;100.00;101363.13;4879357;29;20070;-76
2021/12/06 03:31:26;;;;;;;89.20;40.63;;;;;;;-2.01;100.00;101361.56;4893565;29;20060;-75
2021/12/06 03:33:55;;;;;;;87.65;41.45;;;;;;;-1.98;100.00;101363.19;4864486;29;20599;-76
2021/12/06 03:36:23;;;;;;;86.75;41.25;;;;;;;-1.99;100.00;101369.22;4878642;29;20075;-76
2021/12/06 03:38:51;;;;;;;91.95;41.20;;;;;;;-2.01;100.00;101365.88;4866631;29;20048;-76
2021/12/06 03:41:21;;;;;;;103.75;44.17;;;;;;;-2.03;100.00;101368.50;4895947;29;20040;-77
2021/12/06 03:43:49;;;;;;;84.57;41.25;;;;;;;-2.00;100.00;101373.53;4897601;29;20043;-76
2021/12/06 03:46:16;;;;;;;96.30;43.08;;;;;;;-1.98;100.00;101384.63;4880102;29;20037;-77
2021/12/06 03:48:43;;;;;;;97.80;45.05;;;;;;;-2.05;100.00;101374.59;4896812;29;20088;-76
2021/12/06 03:51:09;;;;;;;108.10;47.22;;;;;;;-1.98;100.00;101387.19;4880472;29;20147;-76
2021/12/06 03:53:35;;;;;;;113.95;48.63;;;;;;;-1.96;100.00;101390.53;4893696;29;20044;-77
2021/12/06 03:56:01;;;;;;;117.45;46.20;;;;;;;-1.94;100.00;101392.22;4875467;29;20043;-76
2021/12/06 03:58:26;;;;;;;95.78;45.05;;;;;;;-1.90;100.00;101404.06;4894530;29;20037;-76
2021/12/06 04:00:53;;;;;;;102.93;45.55;;;;;;;-1.88;100.00;101405.72;4881096;29;20047;-75
2021/12/06 04:03:22;;;;;;;109.47;46.58;;;;;;;-1.83;100.00;101402.97;4896749;29;20111;-76
2021/12/06 04:05:48;;;;;;;107.00;45.63;;;;;;;-1.84;100.00;101401.31;4881310;29;20040;-75
2021/12/06 04:08:15;;;;;;;95.10;43.38;;;;;;;-1.87;100.00;101393.69;4881318;29;20040;-76
2021/12/06 04:10:42;;;;;;;92.70;43.05;;;;;;;-1.78;100.00;101394.22;4881635;29;20095;-77
2021/12/06 04:13:10;;;;;;;96.55;43.30;;;;;;;-1.73;100.00;101394.09;4881413;29;20055;-77
2021/12/06 04:15:38;;;;;;;103.97;44.20;;;;;;;-1.73;100.00;101393.22;4894678;29;20037;-76
2021/12/06 04:18:04;;;;;;;94.28;43.35;;;;;;;-1.72;100.00;101395.75;4880613;29;20486;-77
2021/12/06 04:20:30;;;;;;;103.20;44.70;;;;;;;-1.69;100.00;101393.09;4883394;29;20124;-77
2021/12/06 04:22:57;;;;;;;88.95;41.33;;;;;;;-1.67;100.00;101398.19;4865906;29;20036;-77
2021/12/06 04:25:23;;;;;;;89.85;40.58;;;;;;;-1.67;100.00;101393.03;4880467;29;20078;-77
2021/12/06 04:27:56;;;;;;;91.15;43.00;;;;;;;-1.67;100.00;101400.75;4874896;29;20408;-77
2021/12/06 04:30:25;;;;;;;98.38;42.88;;;;;;;-1.67;100.00;101404.16;4864500;29;20120;-76
2021/12/06 04:32:54;;;;;;;99.28;43.88;;;;;;;-1.64;100.00;101408.34;4863985;29;20233;-76
2021/12/06 04:35:22;;;;;;;93.55;42.03;;;;;;;-1.63;100.00;101412.63;4879478;29;20108;-76
2021/12/06 04:37:48;;;;;;;88.28;40.55;;;;;;;-1.64;100.00;101418.63;4885002;29;20040;-76
2021/12/06 04:40:15;;;;;;;75.80;39.42;;;;;;;-1.66;100.00;101410.97;4868796;29;20041;-76
2021/12/06 04:42:41;;;;;;;81.10;40.03;;;;;;;-1.63;100.00;101416.03;4890134;29;20124;-77
2021/12/06 04:45:10;;;;;;;88.78;41.78;;;;;;;-1.59;100.00;101412.44;4864335;29;20048;-78
2021/12/06 04:47:36;;;;;;;95.68;41.90;;;;;;;-1.58;100.00;101413.31;4879509;29;20050;-75
2021/12/06 04:50:03;;;;;;;86.28;42.22;;;;;;;-1.59;100.00;101409.03;4866168;29;20032;-76
2021/12/06 04:52:29;;;;;;;90.53;42.38;;;;;;;-1.61;100.00;101414.22;4873996;29;20048;-76
2021/12/06 04:54:57;;;;;;;80.63;39.60;;;;;;;-1.59;100.00;101430.44;4867169;29;20036;-77
2021/12/06 04:57:35;;;;;;;87.97;41.60;;;;;;;-1.59;100.00;101437.34;4892830;29;20085;-76
2021/12/06 05:00:17;;;;;;;85.03;40.70;;;;;;;-1.68;100.00;101445.34;4894593;29;20105;-76
2021/12/06 05:02:44;;;;;;;75.75;39.30;;;;;;;-1.76;100.00;101437.91;4869504;29;20043;-76
2021/12/06 05:05:18;;;;;;;79.70;39.55;;;;;;;-1.74;100.00;101445.56;4881738;29;20049;-77
2021/12/06 05:07:51;;;;;;;80.40;38.88;;;;;;;-1.80;100.00;101446.63;4862279;29;20064;-77
2021/12/06 05:10:18;;;;;;;86.95;40.80;;;;;;;-1.87;100.00;101445.13;4864539;29;20044;-77
2021/12/06 05:12:45;;;;;;;78.43;39.17;;;;;;;-1.92;100.00;101441.84;4881665;29;20352;-75
2021/12/06 05:15:12;;;;;;;76.97;39.15;;;;;;;-1.92;100.00;101442.72;4879332;29;20041;-76
2021/12/06 05:17:38;;;;;;;87.40;41.30;;;;;;;-1.82;100.00;101453.53;4881791;29;20044;-78
2021/12/06 05:20:05;;;;;;;82.90;40.55;;;;;;;-1.75;100.00;101462.75;4865990;29;20828;-77
2021/12/06 05:22:31;;;;;;;86.65;40.33;;;;;;;-1.61;100.00;101457.97;4896938;29;20499;-76
2021/12/06 05:24:57;;;;;;;88.57;41.22;;;;;;;-1.52;100.00;101466.28;4871238;29;20041;-76
2021/12/06 05:27:28;;;;;;;93.05;41.80;;;;;;;-1.48;100.00;101481.56;4891784;29;20044;-78
2021/12/06 05:29:59;;;;;;;96.53;43.35;;;;;;;-1.36;100.00;101477.72;4879990;29;20064;-77
2021/12/06 05:32:26;;;;;;;88.00;41.45;;;;;;;-1.28;100.00;101483.47;4895147;29;20049;-76
2021/12/06 05:35:01;;;;;;;95.32;43.58;;;;;;;-1.22;100.00;101472.97;4895820;29;20036;-75
2021/12/06 05:37:27;;;;;;;103.53;44.28;;;;;;;-1.13;100.00;101463.22;4864740;29;20041;-77
2021/12/06 05:39:53;;;;;;;99.30;42.72;;;;;;;-0.99;100.00;101479.88;4896190;29;20036;-76
2021/12/06 05:42:19;;;;;;;97.38;40.92;;;;;;;-1.00;100.00;101467.91;4865132;29;20105;-76
2021/12/06 05:44:45;;;;;;;100.32;42.20;;;;;;;-0.98;100.00;101472.97;4879419;29;20518;-77
2021/12/06 05:47:11;;;;;;;91.05;40.08;;;;;;;-0.90;100.00;101493.34;4879957;29;20036;-77
2021/12/06 05:49:37;;;;;;;89.78;40.20;;;;;;;-0.90;100.00;101501.91;4879606;29;20411;-76
2021/12/06 05:52:04;;;;;;;89.88;39.58;;;;;;;-0.89;100.00;101508.72;4880176;29;20032;-77
2021/12/06 05:54:29;;;;;;;93.07;40.53;;;;;;;-0.90;100.00;101507.06;4880562;29;20037;-77
2021/12/06 05:56:56;;;;;;;96.75;40.50;;;;;;;-0.88;100.00;101520.72;4895488;29;20039;-77
2021/12/06 05:59:23;;;;;;;89.10;38.95;;;;;;;-0.81;100.00;101523.91;4911026;29;20037;-75
2021/12/06 06:01:52;;;;;;;86.22;37.70;;;;;;;-0.85;100.00;101523.19;4881512;29;20114;-76
2021/12/06 06:04:18;;;;;;;85.88;38.15;;;;;;;-0.77;100.00;101522.94;4888268;29;20048;-76
2021/12/06 06:06:44;;;;;;;85.10;38.95;;;;;;;-0.84;100.00;101519.72;4884012;29;20044;-76
2021/12/06 06:09:09;;;;;;;82.53;36.70;;;;;;;-0.84;100.00;101514.56;4883942;29;20047;-77
2021/12/06 06:11:35;;;;;;;74.95;36.25;;;;;;;-0.79;100.00;101520.41;4901278;29;20040;-76
2021/12/06 06:14:03;;;;;;;79.85;36.80;;;;;;;-0.84;100.00;101516.31;4880897;29;20041;-77
2021/12/06 06:16:33;;;;;;;89.57;40.22;;;;;;;-0.87;100.00;101524.97;4867837;29;20543;-76
2021/12/06 06:18:59;;;;;;;80.25;37.67;;;;;;;-0.87;100.00;101527.53;4897946;29;20043;-76
2021/12/06 06:21:24;;;;;;;77.20;37.17;;;;;;;-0.89;100.00;101521.59;4886956;29;20044;-77
2021/12/06 06:23:50;;;;;;;71.75;35.50;;;;;;;-0.86;100.00;101523.25;4897465;29;20051;-76
2021/12/06 06:26:16;;;;;;;83.35;36.72;;;;;;;-0.90;100.00;101537.13;4882988;29;20048;-76
2021/12/06 06:28:42;;;;;;;78.43;37.67;;;;;;;-0.89;100.00;101551.69;4874834;29;20040;-76
2021/12/06 06:31:08;;;;;;;77.88;37.38;;;;;;;-0.96;100.00;101539.91;4890473;29;20044;-75
2021/12/06 06:33:34;;;;;;;79.07;38.17;;;;;;;-0.93;100.00;101550.09;4883059;29;20068;-76
2021/12/06 06:36:00;;;;;;;80.75;38.03;;;;;;;-0.93;100.00;101544.94;4881857;29;20520;-76
2021/12/06 06:38:25;;;;;;;76.82;37.20;;;;;;;-0.95;100.00;101555.31;4913116;29;20036;-76
2021/12/06 06:40:51;;;;;;;74.38;37.28;;;;;;;-0.98;100.00;101547.66;4868967;29;20163;-77
2021/12/06 06:43:18;;;;;;;72.75;36.83;;;;;;;-0.98;100.00;101545.97;4872567;29;20120;-77
2021/12/06 06:45:44;;;;;;;76.60;36.60;;;;;;;-0.93;100.00;101550.94;4883705;29;20049;-76
2021/12/06 06:48:10;;;;;;;75.03;36.47;;;;;;;-1.00;100.00;101547.75;4873774;29;20133;-76
2021/12/06 06:50:36;;;;;;;70.13;35.47;;;;;;;-1.00;100.00;101552.91;4883024;29;20036;-77
2021/12/06 06:53:03;;;;;;;71.18;34.03;;;;;;;-0.97;100.00;101557.09;4884727;29;20041;-76
2021/12/06 06:55:28;;;;;;;66.10;35.25;;;;;;;-1.00;100.00;101562.34;4855200;29;20052;-77
2021/12/06 06:57:54;;;;;;;77.03;36.15;;;;;;;-1.03;100.00;101560.72;4884102;29;20036;-77
2021/12/06 07:00:40;;;;;;;71.65;35.72;;;;;;;-1.02;100.00;101566.69;4883674;29;20487;-77
2021/12/06 07:03:08;;;;;;;70.55;36.30;;;;;;;-1.04;100.00;101558.19;4884957;29;20135;-76
2021/12/06 07:05:36;;;;;;;68.18;35.17;;;;;;;-1.04;100.00;101566.75;4884202;29;20074;-76
2021/12/06 07:08:02;;;;;;;65.25;33.83;;;;;;;-1.03;100.00;101573.59;4884571;29;20043;-76
2021/12/06 07:10:28;;;;;;;73.28;34.67;;;;;;;-1.11;100.00;101565.28;4895073;29;20121;-76
2021/12/06 07:12:55;;;;;;;72.78;36.03;;;;;;;-1.03;100.00;101570.19;4884387;29;20087;-76
2021/12/06 07:15:24;;;;;;;70.95;34.55;;;;;;;-1.05;100.00;101572.81;4881995;29;20124;-76
2021/12/06 07:17:51;;;;;;;66.20;34.05;;;;;;;-0.96;100.00;101578.53;4884829;29;20032;-76
2021/12/06 07:20:18;;;;;;;63.13;33.47;;;;;;;-1.01;100.00;101576.13;4885380;29;20037;-76
2021/12/06 07:22:45;;;;;;;65.72;33.85;;;;;;;-1.04;100.00;101581.38;4890675;29;20056;-76
2021/12/06 07:25:13;;;;;;;62.53;32.50;;;;;;;-1.00;100.00;101582.94;4868520;29;20044;-77
2021/12/06 07:27:39;;;;;;;63.85;33.63;;;;;;;-1.02;100.00;101575.28;4878951;29;20044;-76
2021/12/06 07:30:07;;;;;;;66.93;33.35;;;;;;;-0.99;100.00;101579.47;4877180;29;20067;-76
2021/12/06 07:32:33;;;;;;;59.95;32.85;;;;;;;-1.00;100.00;101582.94;4861297;29;20084;-76
2021/12/06 07:34:59;;;;;;;62.25;33.00;;;;;;;-0.99;100.00;101574.34;4892067;29;20092;-75
2021/12/06 07:37:24;;;;;;;62.83;32.40;;;;;;;-0.92;100.00;101572.38;4888522;29;20079;-75
2021/12/06 07:39:51;;;;;;;65.57;32.22;;;;;;;-0.92;100.00;101569.78;4877557;29;20037;-76
2021/12/06 07:42:17;;;;;;;61.40;31.50;;;;;;;-0.89;100.00;101573.13;4890397;29;20043;-75
2021/12/06 07:44:43;;;;;;;58.17;30.88;;;;;;;-0.89;100.00;101575.69;4890704;29;20047;-76
2021/12/06 07:47:11;;;;;;;60.40;30.85;;;;;;;-0.81;100.00;101581.44;4890855;29;20044;-75
2021/12/06 07:49:38;;;;;;;63.72;31.75;;;;;;;-0.80;100.00;101579.69;4892264;29;20104;-75
2021/12/06 07:52:05;;;;;;;58.67;31.48;;;;;;;-0.74;100.00;101579.47;4892788;29;20563;-75
2021/12/06 07:54:31;;;;;;;52.28;29.63;;;;;;;-0.69;100.00;101576.75;4860791;29;20056;-76
2021/12/06 07:56:57;;;;;;;56.90;30.23;;;;;;;-0.74;100.00;101578.63;4891747;29;20037;-76
2021/12/06 07:59:23;;;;;;;51.85;28.33;;;;;;;-0.73;100.00;101567.47;4876417;29;20041;-75
2021/12/06 08:01:49;;;;;;;53.30;28.95;;;;;;;-0.77;100.00;101566.72;4864762;29;20075;-74
2021/12/06 08:04:16;;;;;;;51.08;28.70;;;;;;;-0.70;100.00;101564.75;4877694;29;20076;-75
2021/12/06 08:06:42;;;;;;;49.47;27.92;;;;;;;-0.75;100.00;101569.22;4896900;29;20036;-76
2021/12/06 08:09:08;;;;;;;49.20;26.52;;;;;;;-0.77;100.00;101568.44;4878064;29;20704;-76
2021/12/06 08:11:34;;;;;;;52.67;28.42;;;;;;;-0.84;100.00;101573.81;4901806;29;20048;-75
2021/12/06 08:14:01;;;;;;;51.97;27.98;;;;;;;-0.87;100.00;101575.63;4900799;29;20073;-75
2021/12/06 08:16:33;;;;;;;51.75;27.75;;;;;;;-0.87;100.00;101568.75;4898258;29;20037;-76
2021/12/06 08:18:59;;;;;;;55.42;27.20;;;;;;;-0.87;100.00;101565.34;4881046;29;20038;-77
2021/12/06 08:21:26;;;;;;;56.08;28.92;;;;;;;-0.84;100.00;101572.97;4895742;29;20037;-76
2021/12/06 08:23:54;;;;;;;52.88;27.20;;;;;;;-0.81;100.00;101578.88;4890011;29;20036;-76
2021/12/06 08:26:24;;;;;;;48.67;26.10;;;;;;;-0.72;100.00;101579.44;4884348;29;20047;-75
2021/12/06 08:28:51;;;;;;;45.75;26.65;;;;;;;-0.71;100.00;101586.28;4876515;29;20028;-76
2021/12/06 08:31:18;;;;;;;49.25;26.67;;;;;;;-0.73;100.00;101577.75;4878442;29;20044;-76
2021/12/06 08:33:46;;;;;;;49.85;25.85;;;;;;;-0.70;100.00;101578.47;4880543;29;20040;-76
2021/12/06 08:36:12;;;;;;;48.15;26.88;;;;;;;-0.69;100.00;101577.59;4878204;29;20048;-76
2021/12/06 08:38:39;;;;;;;50.17;25.95;;;;;;;-0.68;100.00;101588.72;4880047;29;21437;-75
2021/12/06 08:41:09;;;;;;;49.53;27.52;;;;;;;-0.59;100.00;101591.81;4892091;29;21263;-75
2021/12/06 08:43:36;;;;;;;50.80;27.75;;;;;;;-0.60;100.00;101586.75;4894001;29;20047;-76
2021/12/06 08:46:05;;;;;;;46.60;26.77;;;;;;;-0.61;100.00;101575.56;4885701;29;20048;-76
2021/12/06 08:48:34;;;;;;;50.88;27.35;;;;;;;-0.56;100.00;101567.69;4885777;29;20051;-76
2021/12/06 08:51:07;;;;;;;50.05;26.45;;;;;;;-0.52;100.00;101568.44;4880772;29;20036;-77
2021/12/06 08:53:33;;;;;;;53.85;27.33;;;;;;;-0.50;100.00;101559.72;4879707;29;20404;-76
2021/12/06 08:55:58;;;;;;;48.45;25.98;;;;;;;-0.49;100.00;101558.00;4894069;29;20041;-77
2021/12/06 08:58:24;;;;;;;50.85;27.45;;;;;;;-0.42;100.00;101555.13;4878255;29;20037;-75
2021/12/06 09:00:51;;;;;;;51.63;27.73;;;;;;;-0.57;100.00;101537.66;4893147;29;20039;-76
2021/12/06 09:03:17;;;;;;;50.63;27.05;;;;;;;-0.41;100.00;101553.41;4863121;29;20040;-75
2021/12/06 09:05:47;;;;;;;53.22;27.77;;;;;;;-0.40;100.00;101545.63;4892907;29;20419;-75
2021/12/06 09:08:14;;;;;;;53.10;28.90;;;;;;;-0.43;100.00;101545.72;4894623;29;20037;-76
2021/12/06 09:10:41;;;;;;;53.67;28.23;;;;;;;-0.46;100.00;101551.00;4873630;29;20032;-76
2021/12/06 09:13:07;;;;;;;53.88;28.88;;;;;;;-0.47;100.00;101554.47;4889976;29;20600;-76
2021/12/06 09:15:34;;;;;;;50.50;27.60;;;;;;;-0.45;100.00;101554.44;4892789;29;20047;-76
2021/12/06 09:18:00;;;;;;;51.08;27.67;;;;;;;-0.42;100.00;101546.56;4879111;29;20069;-76
2021/12/06 09:20:30;;;;;;;49.80;27.00;;;;;;;-0.36;100.00;101553.22;4891143;29;20104;-76
2021/12/06 09:22:58;;;;;;;49.22;25.50;;;;;;;-0.44;100.00;101541.47;4877792;29;20033;-75
2021/12/06 09:25:24;;;;;;;51.60;25.60;;;;;;;-0.43;100.00;101565.53;4875824;29;20092;-75
2021/12/06 09:27:49;;;;;;;45.33;26.35;;;;;;;-0.36;100.00;101556.66;4860479;29;20069;-76
2021/12/06 09:30:19;;;;;;;46.25;26.02;;;;;;;-0.28;100.00;101566.69;4874937;29;20063;-76
2021/12/06 09:32:46;;;;;;;48.28;26.50;;;;;;;-0.30;100.00;101565.88;4861568;29;20222;-77
2021/12/06 09:35:15;;;;;;;47.70;26.98;;;;;;;-0.27;100.00;101573.53;4882989;29;20048;-76
2021/12/06 09:37:43;;;;;;;48.92;26.55;;;;;;;-0.32;100.00;101565.09;4872550;29;20032;-76
2021/12/06 09:40:10;;;;;;;49.85;27.88;;;;;;;-0.34;100.00;101572.94;4892783;29;20041;-76
2021/12/06 09:42:37;;;;;;;49.38;28.17;;;;;;;-0.32;100.00;101573.72;4901330;29;20411;-76
2021/12/06 09:45:10;;;;;;;53.22;29.60;;;;;;;-0.36;100.00;101572.13;4883742;29;20048;-76
2021/12/06 09:47:36;;;;;;;56.92;31.30;;;;;;;-0.45;100.00;101564.75;4898440;29;20036;-76
2021/12/06 09:50:03;;;;;;;58.63;31.33;;;;;;;-0.46;100.00;101579.34;4897684;29;20101;-76
2021/12/06 09:52:29;;;;;;;54.85;32.42;;;;;;;-0.45;100.00;101581.03;4870163;29;20037;-76
2021/12/06 09:54:55;;;;;;;59.55;33.30;;;;;;;-0.43;100.00;101581.81;4878157;29;20049;-74
2021/12/06 09:57:21;;;;;;;59.15;33.15;;;;;;;-0.44;100.00;101579.28;4882963;29;20041;-77
2021/12/06 09:59:47;;;;;;;64.75;34.70;;;;;;;-0.49;100.00;101576.91;4898014;29;20040;-76
2021/12/06 10:02:16;;;;;;;63.17;34.92;;;;;;;-0.42;100.00;101575.75;4872324;29;20056;-76
2021/12/06 10:04:48;;;;;;;61.92;34.20;;;;;;;-0.37;100.00;101569.63;4882910;29;20075;-75
2021/12/06 10:07:14;;;;;;;63.25;35.28;;;;;;;-0.46;100.00;101570.78;4871862;29;20036;-75
2021/12/06 10:09:42;;;;;;;66.40;36.63;;;;;;;-0.43;100.00;101575.84;4896109;29;20499;-76
2021/12/06 10:12:09;;;;;;;70.13;36.58;;;;;;;-0.35;100.00;101581.53;4899418;29;20032;-76
2021/12/06 10:14:36;;;;;;;63.10;35.72;;;;;;;-0.33;100.00;101576.34;4898936;29;20040;-76
2021/12/06 10:17:04;;;;;;;62.15;36.05;;;;;;;-0.31;100.00;101587.44;4865917;29;20483;-76
2021/12/06 10:19:31;;;;;;;65.75;35.90;;;;;;;-0.25;100.00;101589.78;4869010;29;20071;-76
2021/12/06 10:21:56;;;;;;;61.63;34.67;;;;;;;-0.31;100.00;101580.53;4885726;29;20036;-75
2021/12/06 10:24:25;;;;;;;67.82;35.85;;;;;;;-0.36;100.00;101582.41;4895279;29;20056;-76
2021/12/06 10:27:12;;;;;;;63.67;36.63;;;;;;;-0.39;100.00;101574.81;4884566;29;20040;-76
2021/12/06 10:29:46;;;;;;;67.68;37.28;;;;;;;-0.38;100.00;101581.63;4864755;29;20048;-76
2021/12/06 10:32:40;;;;;;;68.30;35.90;;;;;;;-0.41;100.00;101585.19;4867579;29;20379;-76
2021/12/06 10:35:11;;;;;;;65.80;38.33;;;;;;;-0.39;100.00;101585.13;4882542;29;20132;-76
2021/12/06 10:37:45;;;;;;;65.88;37.83;;;;;;;-0.37;100.00;101590.25;4897421;29;20116;-77
2021/12/06 10:40:17;;;;;;;74.28;40.28;;;;;;;-0.39;100.00;101574.81;4896203;29;20088;-76
2021/12/06 10:42:45;;;;;;;73.28;40.10;;;;;;;-0.30;100.00;101574.50;4894005;29;20044;-75
2021/12/06 10:45:16;;;;;;;75.38;40.72;;;;;;;-0.31;100.00;101562.47;4898001;29;20139;-76
2021/12/06 10:47:44;;;;;;;73.88;40.33;;;;;;;-0.22;100.00;101559.56;4891192;29;20049;-76
2021/12/06 10:50:09;;;;;;;72.65;40.50;;;;;;;-0.15;100.00;101549.00;4881118;29;20214;-75
2021/12/06 10:52:35;;;;;;;73.22;41.10;;;;;;;-0.18;100.00;101539.66;4896473;29;20149;-76
2021/12/06 10:55:01;;;;;;;73.25;40.45;;;;;;;-0.14;100.00;101532.66;4897213;29;20036;-76
2021/12/06 10:57:47;;;;;;;66.30;37.90;;;;;;;-0.15;100.00;101516.34;4865333;29;20032;-76
2021/12/06 11:00:35;;;;;;;66.88;38.15;;;;;;;-0.08;100.00;101515.19;4880408;29;20047;-76
2021/12/06 11:03:01;;;;;;;69.45;37.97;;;;;;;-0.10;100.00;101511.00;4879818;29;20036;-76
2021/12/06 11:05:30;;;;;;;66.53;38.35;;;;;;;-0.11;100.00;101502.44;4877695;29;20041;-76
2021/12/06 11:08:17;;;;;;;65.80;38.20;;;;;;;-0.12;100.00;101487.84;4873983;29;20116;-77
2021/12/06 11:10:51;;;;;;;71.35;39.67;;;;;;;-0.06;100.00;101487.63;4886424;29;20040;-76
2021/12/06 11:13:23;;;;;;;68.43;38.28;;;;;;;-0.20;100.00;101477.84;4891720;29;20115;-76
2021/12/06 11:16:12;;;;;;;64.57;37.58;;;;;;;-0.22;100.00;101479.63;4894085;29;20040;-76
2021/12/06 11:18:48;;;;;;;66.82;37.90;;;;;;;-0.16;100.00;101482.88;4876634;29;20040;-76
2021/12/06 11:21:36;;;;;;;69.18;39.40;;;;;;;-0.20;100.00;101484.72;4892100;29;20475;-77
2021/12/06 11:24:07;;;;;;;69.45;38.70;;;;;;;-0.24;100.00;101493.50;4893023;29;20029;-76
2021/12/06 11:26:40;;;;;;;70.57;38.40;;;;;;;-0.15;100.00;101503.47;4888990;29;20123;-76
2021/12/06 11:29:15;;;;;;;66.05;38.40;;;;;;;-0.10;100.00;101500.69;4874903;29;20139;-77